createdAt,value
2022-10-22T00:00:15.033Z,16.37
2022-10-22T00:02:42.359Z,16.40
2022-10-22T00:05:11.230Z,15.57
2022-10-22T00:07:38.459Z,16.20
2022-10-22T00:10:06.860Z,16.43
2022-10-22T00:12:34.028Z,15.90
2022-10-22T00:15:00.922Z,14.73
2022-10-22T00:17:27.814Z,16.17
2022-10-22T00:19:54.692Z,16.27
2022-10-22T00:22:21.582Z,16.33
2022-10-22T00:24:48.479Z,16.30
2022-10-22T00:27:15.414Z,16.75
2022-10-22T00:29:42.380Z,16.57
2022-10-22T00:32:09.248Z,15.37
2022-10-22T00:34:36.189Z,15.73
2022-10-22T00:37:03.097Z,16.05
2022-10-22T00:39:30.069Z,16.20
2022-10-22T00:41:58.268Z,15.80
2022-10-22T00:45:02.745Z,15.93
2022-10-22T00:47:43.891Z,15.77
2022-10-22T00:50:27.180Z,15.27
2022-10-22T00:52:55.403Z,15.70
2022-10-22T00:55:24.691Z,16.00
2022-10-22T00:57:55.145Z,17.13
2022-10-22T01:00:22.697Z,14.52
2022-10-22T01:02:51.570Z,15.15
2022-10-22T01:05:18.629Z,15.27
2022-10-22T01:07:50.706Z,15.83
2022-10-22T01:10:44.696Z,15.80
2022-10-22T01:14:02.313Z,14.90
2022-10-22T01:16:54.293Z,15.68
2022-10-22T01:19:56.764Z,15.18
2022-10-22T01:22:33.441Z,15.23
2022-10-22T01:25:22.717Z,15.18
2022-10-22T01:28:44.347Z,15.80
2022-10-22T01:31:13.728Z,13.95
2022-10-22T01:33:42.076Z,12.77
2022-10-22T01:36:10.309Z,13.60
2022-10-22T01:38:39.087Z,14.35
2022-10-22T01:41:07.030Z,14.50
2022-10-22T01:43:33.920Z,14.57
2022-10-22T01:46:04.724Z,14.65
2022-10-22T01:48:40.285Z,14.90
2022-10-22T01:51:58.421Z,13.65
2022-10-22T01:55:14.283Z,14.60
2022-10-22T01:57:53.876Z,14.07
2022-10-22T02:00:20.858Z,13.77
2022-10-22T02:03:23.762Z,14.75
2022-10-22T02:06:05.549Z,13.75
2022-10-22T02:08:35.845Z,13.38
2022-10-22T02:11:04.314Z,14.55
2022-10-22T02:13:38.563Z,13.73
2022-10-22T02:16:08.313Z,14.45
2022-10-22T02:18:40.671Z,14.15
2022-10-22T02:23:40.076Z,13.65
2022-10-22T02:26:34.060Z,13.73
2022-10-22T02:29:23.537Z,13.82
2022-10-22T02:31:51.788Z,14.13
2022-10-22T02:34:24.167Z,12.85
2022-10-22T02:36:52.235Z,13.45
2022-10-22T02:39:21.159Z,13.73
2022-10-22T02:41:48.790Z,13.30
2022-10-22T02:44:15.807Z,13.90
2022-10-22T02:46:44.038Z,13.32
2022-10-22T02:49:10.904Z,13.40
2022-10-22T02:51:37.964Z,12.70
2022-10-22T02:54:05.197Z,13.55
2022-10-22T02:56:32.270Z,13.40
2022-10-22T02:58:59.321Z,13.57
2022-10-22T03:01:26.619Z,13.10
2022-10-22T03:03:53.507Z,13.65
2022-10-22T03:06:20.861Z,14.32
2022-10-22T03:08:47.845Z,12.75
2022-10-22T03:11:14.754Z,13.30
2022-10-22T03:13:41.633Z,13.95
2022-10-22T03:16:08.840Z,13.73
2022-10-22T03:18:35.915Z,13.43
2022-10-22T03:21:31.425Z,15.00
2022-10-22T03:23:59.742Z,15.65
2022-10-22T03:26:26.702Z,13.25
2022-10-22T03:28:54.593Z,13.27
2022-10-22T03:31:21.457Z,13.77
2022-10-22T03:33:48.378Z,13.38
2022-10-22T03:36:15.518Z,12.65
2022-10-22T03:38:42.473Z,12.80
2022-10-22T03:41:10.439Z,14.15
2022-10-22T03:43:40.923Z,13.05
2022-10-22T03:46:07.802Z,13.13
2022-10-22T03:48:34.672Z,14.23
2022-10-22T03:51:01.544Z,14.35
2022-10-22T03:53:28.439Z,14.88
2022-10-22T03:55:55.292Z,11.70
2022-10-22T03:58:22.290Z,12.85
2022-10-22T04:00:49.211Z,11.80
2022-10-22T04:03:16.158Z,12.65
2022-10-22T04:05:43.101Z,11.50
2022-10-22T04:08:10.270Z,12.50
2022-10-22T04:10:37.174Z,11.40
2022-10-22T04:13:04.098Z,11.68
2022-10-22T04:15:32.565Z,11.95
2022-10-22T04:17:59.490Z,10.68
2022-10-22T04:20:26.470Z,11.52
2022-10-22T04:22:53.374Z,10.68
2022-10-22T04:25:20.243Z,10.48
2022-10-22T04:27:47.111Z,10.60
2022-10-22T04:30:14.262Z,10.52
2022-10-22T04:32:41.165Z,11.15
2022-10-22T04:35:08.456Z,10.90
2022-10-22T04:37:35.414Z,11.18
2022-10-22T04:40:02.323Z,10.23
2022-10-22T04:42:29.190Z,11.65
2022-10-22T04:44:56.059Z,11.23
2022-10-22T04:47:22.988Z,11.63
2022-10-22T04:49:49.869Z,10.90
2022-10-22T04:52:16.776Z,11.10
2022-10-22T04:54:43.669Z,12.50
2022-10-22T04:57:10.535Z,10.88
2022-10-22T04:59:37.482Z,10.63
2022-10-22T05:02:04.452Z,11.25
2022-10-22T05:04:31.956Z,11.80
2022-10-22T05:06:58.880Z,11.73
2022-10-22T05:09:25.787Z,11.70
2022-10-22T05:11:53.608Z,11.60
2022-10-22T05:14:24.329Z,11.55
2022-10-22T05:16:52.481Z,11.73
2022-10-22T05:19:29.361Z,11.65
2022-10-22T05:21:59.743Z,11.55
2022-10-22T05:24:27.989Z,11.10
2022-10-22T05:26:57.687Z,12.00
2022-10-22T05:29:25.976Z,12.13
2022-10-22T05:31:53.388Z,11.65
2022-10-22T05:34:20.428Z,11.98
2022-10-22T05:36:47.332Z,12.15
2022-10-22T05:39:14.186Z,15.77
2022-10-22T05:41:41.577Z,21.15
2022-10-22T05:44:11.560Z,25.23
2022-10-22T05:46:38.535Z,27.33
2022-10-22T05:49:07.008Z,30.48
2022-10-22T05:51:36.618Z,31.98
2022-10-22T05:54:07.978Z,24.30
2022-10-22T05:56:36.765Z,19.80
2022-10-22T05:59:04.448Z,17.27
2022-10-22T06:01:35.402Z,17.92
2022-10-22T06:04:06.043Z,15.35
2022-10-22T06:06:37.624Z,14.32
2022-10-22T06:09:35.382Z,13.18
2022-10-22T06:12:02.774Z,12.38
2022-10-22T06:14:32.224Z,13.70
2022-10-22T06:17:00.365Z,14.60
2022-10-22T06:19:27.363Z,16.40
2022-10-22T06:21:54.356Z,15.25
2022-10-22T06:24:21.373Z,15.48
2022-10-22T06:26:52.218Z,15.13
2022-10-22T06:29:19.327Z,14.57
2022-10-22T06:31:46.203Z,13.65
2022-10-22T06:34:15.154Z,14.13
2022-10-22T06:36:44.023Z,14.82
2022-10-22T06:39:17.227Z,14.68
2022-10-22T06:41:44.197Z,14.82
2022-10-22T06:44:16.364Z,12.80
2022-10-22T06:46:43.874Z,12.70
2022-10-22T06:49:14.410Z,12.93
2022-10-22T06:51:41.617Z,12.18
2022-10-22T06:54:08.697Z,11.73
2022-10-22T06:56:35.655Z,11.38
2022-10-22T06:59:03.080Z,11.10
2022-10-22T07:01:33.599Z,11.45
2022-10-22T07:04:01.359Z,10.93
2022-10-22T07:06:29.644Z,10.57
2022-10-22T07:08:58.844Z,10.23
2022-10-22T07:11:38.729Z,11.10
2022-10-22T07:14:05.690Z,11.32
2022-10-22T07:16:32.754Z,10.65
2022-10-22T07:19:01.302Z,11.65
2022-10-22T07:21:28.955Z,11.05
2022-10-22T07:23:56.577Z,10.68
2022-10-22T07:26:25.446Z,11.40
2022-10-22T07:28:52.606Z,10.82
2022-10-22T07:31:20.028Z,10.85
2022-10-22T07:33:47.037Z,11.07
2022-10-22T07:36:17.627Z,14.48
2022-10-22T07:38:46.523Z,13.95
2022-10-22T07:41:15.613Z,16.70
2022-10-22T07:43:42.701Z,15.27
2022-10-22T07:46:09.668Z,12.82
2022-10-22T07:48:37.143Z,12.75
2022-10-22T07:51:04.450Z,12.93
2022-10-22T07:53:31.602Z,11.48
2022-10-22T07:55:58.543Z,12.07
2022-10-22T07:58:25.493Z,10.98
2022-10-22T08:00:57.500Z,12.10
2022-10-22T08:03:24.556Z,11.30
2022-10-22T08:05:52.203Z,11.25
2022-10-22T08:08:19.491Z,11.93
2022-10-22T08:10:48.323Z,12.23
2022-10-22T08:13:15.407Z,11.60
2022-10-22T08:18:11.597Z,11.52
2022-10-22T08:20:38.495Z,11.95
2022-10-22T08:23:05.861Z,11.95
2022-10-22T08:25:33.576Z,11.02
2022-10-22T08:28:00.456Z,12.38
2022-10-22T08:30:29.758Z,12.10
2022-10-22T08:32:57.139Z,12.27
2022-10-22T08:35:24.030Z,11.50
2022-10-22T08:37:51.090Z,11.05
2022-10-22T08:40:32.769Z,12.18
2022-10-22T08:43:47.507Z,11.55
2022-10-22T08:46:59.264Z,11.35
2022-10-22T08:49:37.232Z,11.32
2022-10-22T08:52:14.162Z,12.05
2022-10-22T08:54:59.651Z,11.50
2022-10-22T08:58:02.593Z,11.93
2022-10-22T09:00:52.720Z,11.70
2022-10-22T09:03:49.454Z,11.63
2022-10-22T09:06:24.363Z,11.70
2022-10-22T09:08:53.323Z,11.88
2022-10-22T09:11:37.324Z,13.70
2022-10-22T09:14:05.572Z,13.52
2022-10-22T09:16:36.631Z,17.23
2022-10-22T09:19:42.105Z,17.55
2022-10-22T09:22:38.744Z,18.05
2022-10-22T09:25:31.423Z,15.05
2022-10-22T09:27:58.744Z,16.30
2022-10-22T09:30:34.647Z,16.88
2022-10-22T09:33:07.568Z,18.45
2022-10-22T09:35:47.903Z,17.00
2022-10-22T09:38:18.107Z,16.40
2022-10-22T09:40:57.868Z,15.18
2022-10-22T09:43:25.031Z,14.52
2022-10-22T09:46:15.601Z,16.90
2022-10-22T09:48:48.457Z,19.63
2022-10-22T09:51:38.140Z,18.83
2022-10-22T09:54:23.712Z,17.35
2022-10-22T09:56:57.817Z,15.93
2022-10-22T09:59:34.104Z,14.88
2022-10-22T10:02:44.170Z,16.52
2022-10-22T10:05:23.643Z,15.48
2022-10-22T10:07:50.612Z,16.55
2022-10-22T10:10:34.781Z,16.80
2022-10-22T10:13:36.435Z,15.15
2022-10-22T10:16:27.830Z,15.60
2022-10-22T10:19:34.937Z,14.82
2022-10-22T10:22:42.826Z,18.90
2022-10-22T10:25:42.642Z,18.42
2022-10-22T10:28:58.525Z,15.38
2022-10-22T10:31:38.437Z,14.68
2022-10-22T10:34:31.940Z,17.92
2022-10-22T10:37:18.021Z,23.73
2022-10-22T10:40:03.421Z,28.90
2022-10-22T10:42:59.976Z,23.88
2022-10-22T10:46:02.516Z,21.35
2022-10-22T10:48:42.986Z,20.85
2022-10-22T10:51:41.472Z,17.52
2022-10-22T10:54:21.490Z,15.60
2022-10-22T10:57:25.534Z,15.00
2022-10-22T11:00:16.004Z,14.57
2022-10-22T11:03:16.127Z,14.00
2022-10-22T11:05:52.345Z,13.82
2022-10-22T11:08:28.998Z,13.63
2022-10-22T11:14:00.471Z,15.68
2022-10-22T11:17:14.484Z,20.38
2022-10-22T11:19:59.128Z,23.35
2022-10-22T11:23:13.138Z,36.47
2022-10-22T11:25:39.799Z,43.60
2022-10-22T11:28:18.507Z,25.23
2022-10-22T11:30:54.032Z,17.75
2022-10-22T11:33:26.043Z,16.60
2022-10-22T11:35:53.481Z,16.95
2022-10-22T11:38:26.166Z,17.80
2022-10-22T11:41:01.301Z,17.55
2022-10-22T11:43:37.674Z,17.55
2022-10-22T11:46:34.582Z,18.23
2022-10-22T11:49:19.358Z,18.42
2022-10-22T11:51:47.642Z,16.05
2022-10-22T11:54:37.348Z,15.52
2022-10-22T11:57:21.382Z,15.95
2022-10-22T11:59:49.843Z,17.85
2022-10-22T12:02:44.975Z,20.02
2022-10-22T12:05:24.009Z,16.88
2022-10-22T12:07:58.449Z,17.45
2022-10-22T12:11:09.234Z,15.95
2022-10-22T12:14:24.397Z,14.85
2022-10-22T12:17:03.492Z,15.18
2022-10-22T12:19:42.571Z,13.35
2022-10-22T12:22:28.353Z,15.45
2022-10-22T12:25:00.735Z,17.48
2022-10-22T12:27:37.761Z,18.13
2022-10-22T12:30:34.906Z,17.10
2022-10-22T12:33:05.988Z,18.25
2022-10-22T12:35:41.848Z,15.82
2022-10-22T12:38:20.226Z,14.73
2022-10-22T12:40:49.225Z,14.25
2022-10-22T12:43:30.330Z,14.93
2022-10-22T12:45:58.799Z,16.30
2022-10-22T12:48:32.040Z,15.50
2022-10-22T12:51:02.226Z,16.48
2022-10-22T12:53:35.490Z,15.88
2022-10-22T12:56:21.474Z,15.10
2022-10-22T12:59:05.588Z,16.02
2022-10-22T13:01:39.392Z,17.23
2022-10-22T13:04:26.847Z,14.65
2022-10-22T13:07:18.515Z,17.08
2022-10-22T13:09:59.631Z,16.45
2022-10-22T13:12:34.927Z,16.50
2022-10-22T13:15:28.619Z,16.02
2022-10-22T13:18:19.248Z,16.85
2022-10-22T13:20:56.812Z,17.90
2022-10-22T13:23:27.226Z,16.38
2022-10-22T13:26:12.909Z,17.02
2022-10-22T13:28:40.652Z,16.85
2022-10-22T13:31:19.603Z,16.65
2022-10-22T13:33:52.820Z,16.42
2022-10-22T13:36:20.061Z,17.40
2022-10-22T13:38:47.167Z,17.83
2022-10-22T13:41:30.961Z,16.63
2022-10-22T13:43:59.282Z,16.52
2022-10-22T13:46:27.556Z,17.48
2022-10-22T13:48:56.079Z,18.65
2022-10-22T13:51:35.123Z,16.75
2022-10-22T13:54:04.040Z,17.08
2022-10-22T13:56:30.899Z,18.65
2022-10-22T13:58:57.728Z,21.25
2022-10-22T14:01:29.217Z,21.88
2022-10-22T14:03:59.306Z,20.00
2022-10-22T14:06:31.297Z,19.52
2022-10-22T14:09:10.475Z,19.08
2022-10-22T14:11:37.398Z,21.98
2022-10-22T14:14:08.580Z,20.15
2022-10-22T14:16:36.967Z,21.83
2022-10-22T14:19:04.747Z,20.70
2022-10-22T14:21:37.885Z,19.02
2022-10-22T14:24:07.207Z,18.98
2022-10-22T14:26:36.354Z,19.20
2022-10-22T14:29:09.235Z,19.38
2022-10-22T14:34:16.524Z,32.63
2022-10-22T14:36:44.264Z,37.63
2022-10-22T14:39:13.107Z,29.33
2022-10-22T14:41:40.908Z,30.90
2022-10-22T14:44:12.637Z,33.60
2022-10-22T14:46:42.138Z,36.80
2022-10-22T14:49:09.045Z,30.67
2022-10-22T14:51:35.852Z,25.92
2022-10-22T14:54:02.686Z,24.77
2022-10-22T14:56:29.535Z,23.67
2022-10-22T14:58:56.440Z,23.70
2022-10-22T15:01:23.257Z,21.00
2022-10-22T15:03:50.104Z,22.67
2022-10-22T15:06:17.552Z,24.45
2022-10-22T15:08:45.230Z,23.92
2022-10-22T15:11:13.257Z,24.95
2022-10-22T15:13:41.350Z,24.92
2022-10-22T15:16:10.907Z,21.75
2022-10-22T15:18:38.180Z,21.27
2022-10-22T15:21:12.058Z,20.52
2022-10-22T15:23:39.613Z,21.83
2022-10-22T15:26:11.853Z,22.50
2022-10-22T15:28:40.202Z,24.35
2022-10-22T15:31:08.170Z,25.40
2022-10-22T15:33:35.013Z,24.38
2022-10-22T15:36:12.483Z,21.85
2022-10-22T15:38:39.578Z,20.65
2022-10-22T15:41:10.159Z,20.00
2022-10-22T15:43:38.693Z,19.73
2022-10-22T15:46:17.098Z,20.33
2022-10-22T15:48:45.131Z,23.83
2022-10-22T15:51:16.186Z,32.15
2022-10-22T15:53:43.420Z,30.27
2022-10-22T15:56:14.097Z,25.50
2022-10-22T15:58:41.861Z,24.08
2022-10-22T16:01:13.087Z,25.23
2022-10-22T16:03:41.257Z,23.40
2022-10-22T16:06:09.547Z,21.55
2022-10-22T16:08:37.632Z,20.95
2022-10-22T16:11:05.404Z,19.88
2022-10-22T16:13:32.298Z,20.30
2022-10-22T16:15:59.213Z,20.85
2022-10-22T16:18:26.108Z,21.63
2022-10-22T16:20:53.040Z,21.52
2022-10-22T16:23:20.889Z,21.67
2022-10-22T16:25:47.834Z,24.10
2022-10-22T16:28:15.106Z,26.15
2022-10-22T16:30:42.386Z,24.63
2022-10-22T16:33:10.769Z,25.38
2022-10-22T16:35:43.923Z,24.92
2022-10-22T16:38:12.253Z,27.52
2022-10-22T16:40:39.732Z,27.52
2022-10-22T16:43:06.691Z,29.98
2022-10-22T16:45:33.574Z,28.02
2022-10-22T16:48:00.473Z,26.15
2022-10-22T16:50:27.740Z,24.75
2022-10-22T16:52:54.766Z,26.85
2022-10-22T16:55:21.746Z,28.58
2022-10-22T16:57:53.403Z,28.33
2022-10-22T17:00:21.241Z,27.52
2022-10-22T17:02:53.422Z,28.42
2022-10-22T17:05:21.209Z,30.52
2022-10-22T17:07:48.708Z,36.25
2022-10-22T17:10:16.559Z,45.00
2022-10-22T17:12:43.825Z,33.00
2022-10-22T17:15:11.053Z,28.10
2022-10-22T17:17:38.977Z,26.73
2022-10-22T17:20:07.068Z,28.75
2022-10-22T17:22:34.091Z,32.75
2022-10-22T17:25:19.960Z,30.63
2022-10-22T17:27:46.867Z,33.38
2022-10-22T17:30:17.645Z,33.03
2022-10-22T17:32:45.071Z,31.45
2022-10-22T17:35:14.735Z,31.58
2022-10-22T17:37:42.048Z,31.73
2022-10-22T17:40:10.143Z,35.50
2022-10-22T17:42:37.045Z,33.00
2022-10-22T17:45:04.371Z,36.80
2022-10-22T17:47:31.393Z,32.38
2022-10-22T17:49:58.304Z,31.02
2022-10-22T17:52:25.167Z,30.17
2022-10-22T17:54:53.227Z,29.42
2022-10-22T17:57:20.124Z,30.05
2022-10-22T17:59:47.006Z,26.65
2022-10-22T18:02:17.452Z,26.55
2022-10-22T18:04:44.676Z,27.30
2022-10-22T18:07:11.654Z,28.13
2022-10-22T18:09:39.837Z,28.00
2022-10-22T18:12:07.247Z,28.10
2022-10-22T18:14:34.297Z,28.65
2022-10-22T18:17:04.437Z,29.70
2022-10-22T18:19:31.665Z,27.52
2022-10-22T18:21:58.903Z,28.95
2022-10-22T18:24:25.785Z,27.80
2022-10-22T18:26:52.666Z,29.45
2022-10-22T18:29:20.742Z,28.88
2022-10-22T18:31:48.569Z,28.67
2022-10-22T18:34:17.688Z,28.23
2022-10-22T18:36:47.228Z,28.60
2022-10-22T18:39:15.837Z,29.58
2022-10-22T18:41:43.347Z,26.90
2022-10-22T18:44:14.211Z,25.05
2022-10-22T18:46:41.188Z,26.50
2022-10-22T18:49:08.296Z,26.58
2022-10-22T18:51:36.262Z,29.63
2022-10-22T18:54:21.396Z,25.65
2022-10-22T18:56:49.447Z,25.02
2022-10-22T18:59:21.035Z,24.10
2022-10-22T19:01:48.369Z,24.70
2022-10-22T19:04:15.596Z,24.58
2022-10-22T19:06:45.305Z,22.95
2022-10-22T19:09:14.921Z,22.60
2022-10-22T19:11:44.513Z,23.05
2022-10-22T19:14:13.155Z,22.23
2022-10-22T19:16:40.099Z,22.10
2022-10-22T19:19:07.924Z,22.83
2022-10-22T19:21:35.184Z,23.00
2022-10-22T19:24:02.482Z,21.90
2022-10-22T19:26:30.476Z,23.98
2022-10-22T19:28:58.751Z,21.52
2022-10-22T19:31:29.929Z,20.67
2022-10-22T19:33:58.085Z,21.42
2022-10-22T19:36:27.940Z,22.25
2022-10-22T19:38:55.571Z,21.65
2022-10-22T19:41:25.355Z,19.75
2022-10-22T19:43:55.468Z,22.90
2022-10-22T19:46:23.576Z,19.35
2022-10-22T19:48:52.328Z,18.65
2022-10-22T19:51:25.557Z,18.80
2022-10-22T19:53:59.329Z,18.60
2022-10-22T19:56:26.696Z,18.13
2022-10-22T19:58:53.787Z,17.60
2022-10-22T20:01:20.986Z,20.40
2022-10-22T20:03:48.042Z,17.92
2022-10-22T20:06:17.287Z,17.98
2022-10-22T20:08:44.538Z,17.88
2022-10-22T20:11:21.423Z,16.92
2022-10-22T20:13:51.392Z,18.17
2022-10-22T20:16:23.801Z,18.45
2022-10-22T20:18:52.102Z,19.40
2022-10-22T20:21:20.642Z,20.83
2022-10-22T20:23:52.060Z,20.60
2022-10-22T20:26:19.352Z,19.58
2022-10-22T20:28:46.367Z,18.58
2022-10-22T20:31:16.923Z,17.45
2022-10-22T20:33:43.840Z,18.15
2022-10-22T20:36:17.401Z,18.55
2022-10-22T20:38:45.421Z,17.60
2022-10-22T20:41:17.276Z,18.27
2022-10-22T20:43:45.736Z,16.02
2022-10-22T20:46:23.106Z,17.88
2022-10-22T20:48:56.907Z,15.98
2022-10-22T20:51:23.816Z,17.67
2022-10-22T20:53:50.819Z,17.70
2022-10-22T20:56:18.674Z,17.33
2022-10-22T20:58:48.676Z,16.48
2022-10-22T21:01:24.307Z,19.02
2022-10-22T21:03:52.936Z,18.95
2022-10-22T21:06:23.008Z,18.48
2022-10-22T21:08:51.149Z,19.35
2022-10-22T21:11:19.476Z,19.38
2022-10-22T21:13:46.840Z,17.75
2022-10-22T21:16:15.452Z,16.17
2022-10-22T21:18:42.429Z,16.50
2022-10-22T21:21:11.676Z,14.90
2022-10-22T21:23:38.884Z,15.55
2022-10-22T21:26:06.290Z,14.77
2022-10-22T21:28:35.792Z,16.73
2022-10-22T21:31:05.475Z,16.02
2022-10-22T21:33:36.463Z,14.95
2022-10-22T21:36:04.248Z,15.07
2022-10-22T21:38:31.602Z,14.82
2022-10-22T21:40:58.443Z,13.75
2022-10-22T21:43:25.318Z,14.75
2022-10-22T21:45:52.336Z,14.07
2022-10-22T21:48:19.292Z,14.60
2022-10-22T21:50:46.170Z,14.75
2022-10-22T21:53:13.316Z,14.18
2022-10-22T21:55:41.080Z,13.63
2022-10-22T21:58:08.752Z,14.43
2022-10-22T22:00:36.338Z,13.73
2022-10-22T22:03:03.729Z,14.25
2022-10-22T22:05:30.741Z,13.25
2022-10-22T22:07:57.666Z,14.77
2022-10-22T22:10:26.596Z,14.18
2022-10-22T22:12:53.461Z,13.82
2022-10-22T22:15:20.648Z,14.10
2022-10-22T22:17:47.621Z,12.93
2022-10-22T22:20:14.635Z,14.27
2022-10-22T22:22:41.796Z,14.32
2022-10-22T22:25:09.290Z,15.57
2022-10-22T22:27:36.189Z,14.23
2022-10-22T22:30:03.745Z,14.10
2022-10-22T22:32:31.571Z,14.85
2022-10-22T22:34:58.477Z,14.10
2022-10-22T22:37:27.340Z,14.63
2022-10-22T22:39:54.470Z,14.98
2022-10-22T22:42:21.336Z,15.52
2022-10-22T22:44:48.196Z,15.63
2022-10-22T22:47:15.091Z,15.30
2022-10-22T22:49:42.001Z,15.65
2022-10-22T22:52:09.521Z,16.08
2022-10-22T22:54:36.437Z,15.95
2022-10-22T22:57:03.337Z,15.60
2022-10-22T22:59:30.221Z,15.38
2022-10-22T23:01:57.131Z,15.35
2022-10-22T23:04:25.146Z,15.60
2022-10-22T23:06:52.108Z,17.45
2022-10-22T23:11:52.745Z,13.80
2022-10-22T23:14:20.110Z,13.48
2022-10-22T23:16:50.200Z,15.13
2022-10-22T23:19:20.497Z,14.30
2022-10-22T23:21:53.888Z,14.23
2022-10-22T23:24:27.834Z,13.98
2022-10-22T23:26:56.492Z,13.52
2022-10-22T23:29:27.524Z,13.52
2022-10-22T23:31:55.753Z,12.52
2022-10-22T23:34:24.987Z,13.18
2022-10-22T23:36:52.780Z,14.07
2022-10-22T23:39:24.255Z,12.82
2022-10-22T23:41:53.162Z,13.43
2022-10-22T23:44:22.153Z,13.63
2022-10-22T23:46:49.374Z,13.57
2022-10-22T23:49:17.526Z,14.13
2022-10-22T23:51:44.666Z,15.48
2022-10-22T23:54:15.321Z,15.00
2022-10-22T23:56:42.246Z,15.00
2022-10-22T23:59:09.270Z,14.80
